createdAt,value
2017-11-12T00:02:22.203Z,99570.39
2017-11-12T00:04:48.489Z,99562.54
2017-11-12T00:07:14.740Z,99556.77
2017-11-12T00:09:40.972Z,99555.94
2017-11-12T00:12:07.237Z,99556.67
2017-11-12T00:14:33.468Z,99558.35
2017-11-12T00:17:00.822Z,99552.56
2017-11-12T00:19:27.095Z,99555.77
2017-11-12T00:21:53.334Z,99558.77
2017-11-12T00:24:19.568Z,99558.33
2017-11-12T00:26:45.832Z,99556.17
2017-11-12T00:29:12.038Z,99552.20
2017-11-12T00:31:38.277Z,99542.06
2017-11-12T00:34:04.551Z,99541.48
2017-11-12T00:36:30.812Z,99538.92
2017-11-12T00:38:57.035Z,99542.86
2017-11-12T00:41:23.422Z,99537.33
2017-11-12T00:43:49.676Z,99537.78
2017-11-12T00:46:15.941Z,99534.13
2017-11-12T00:48:42.271Z,99533.70
2017-11-12T00:51:08.623Z,99527.64
2017-11-12T00:53:34.850Z,99526.98
2017-11-12T00:56:01.136Z,99525.17
2017-11-12T00:58:27.382Z,99529.84
2017-11-12T01:00:53.631Z,99525.19
2017-11-12T01:03:19.921Z,99520.00
2017-11-12T01:05:46.158Z,99518.72
2017-11-12T01:08:12.404Z,99512.63
2017-11-12T01:10:38.723Z,99521.19
2017-11-12T01:13:04.958Z,99519.05
2017-11-12T01:15:31.205Z,99518.35
2017-11-12T01:17:57.479Z,99508.55
2017-11-12T01:20:23.709Z,99503.84
2017-11-12T01:22:49.969Z,99507.84
2017-11-12T01:25:16.239Z,99509.31
2017-11-12T01:27:42.534Z,99508.91
2017-11-12T01:30:08.775Z,99505.23
2017-11-12T01:32:35.173Z,99504.14
2017-11-12T01:35:01.407Z,99496.81
2017-11-12T01:37:27.663Z,99499.64
2017-11-12T01:39:53.907Z,99502.91
2017-11-12T01:42:20.133Z,99496.15
2017-11-12T01:44:46.359Z,99493.73
2017-11-12T01:47:12.615Z,99494.33
2017-11-12T01:49:38.867Z,99485.56
2017-11-12T01:52:05.107Z,99485.52
2017-11-12T01:54:31.379Z,99487.22
2017-11-12T01:56:57.638Z,99480.99
2017-11-12T01:59:23.856Z,99483.84
2017-11-12T02:01:50.147Z,99474.19
2017-11-12T02:04:16.394Z,99476.67
2017-11-12T02:06:42.649Z,99473.02
2017-11-12T02:09:09.047Z,99473.09
2017-11-12T02:11:35.285Z,99477.41
2017-11-12T02:14:01.517Z,99483.27
2017-11-12T02:16:27.855Z,99484.44
2017-11-12T02:18:54.105Z,99480.13
2017-11-12T02:21:20.346Z,99492.48
2017-11-12T02:23:46.643Z,99494.89
2017-11-12T02:26:12.895Z,99492.14
2017-11-12T02:28:39.153Z,99493.19
2017-11-12T02:31:05.429Z,99491.36
2017-11-12T02:33:31.674Z,99489.40
2017-11-12T02:35:57.930Z,99489.29
2017-11-12T02:38:24.216Z,99502.73
2017-11-12T02:40:50.457Z,99495.02
2017-11-12T02:43:16.700Z,99501.51
2017-11-12T02:45:42.978Z,99510.05
2017-11-12T02:48:09.223Z,99514.94
2017-11-12T02:50:35.460Z,99512.70
2017-11-12T02:53:01.901Z,99513.92
2017-11-12T02:55:28.156Z,99515.89
2017-11-12T02:57:54.397Z,99510.55
2017-11-12T03:00:20.658Z,99503.66
2017-11-12T03:02:46.886Z,99511.27
2017-11-12T03:05:13.150Z,99512.91
2017-11-12T03:07:39.452Z,99511.38
2017-11-12T03:10:05.689Z,99511.38
2017-11-12T03:12:31.927Z,99514.23
2017-11-12T03:14:58.202Z,99509.84
2017-11-12T03:17:24.448Z,99512.19
2017-11-12T03:19:50.689Z,99505.52
2017-11-12T03:22:16.995Z,99509.20
2017-11-12T03:24:43.252Z,99501.17
2017-11-12T03:27:09.508Z,99506.84
2017-11-12T03:29:35.781Z,99516.36
2017-11-12T03:32:02.019Z,99509.55
2017-11-12T03:34:28.259Z,99502.73
2017-11-12T03:36:54.548Z,99509.16
2017-11-12T03:39:20.895Z,99516.66
2017-11-12T03:41:47.145Z,99504.25
2017-11-12T03:44:13.468Z,99501.89
2017-11-12T03:46:39.720Z,99510.48
2017-11-12T03:49:05.958Z,99514.61
2017-11-12T03:51:32.248Z,99519.53
2017-11-12T03:53:58.483Z,99504.25
2017-11-12T03:56:24.720Z,99516.44
2017-11-12T03:58:51.015Z,99517.47
2017-11-12T04:01:17.265Z,99516.03
2017-11-12T04:03:43.547Z,99519.81
2017-11-12T04:06:09.843Z,99519.83
2017-11-12T04:08:36.104Z,99523.00
2017-11-12T04:11:02.362Z,99518.18
2017-11-12T04:13:28.648Z,99515.11
2017-11-12T04:15:54.914Z,99517.77
2017-11-12T04:18:21.180Z,99518.63
2017-11-12T04:20:47.468Z,99525.82
2017-11-12T04:23:13.729Z,99523.97
2017-11-12T04:25:39.987Z,99519.98
2017-11-12T04:28:06.280Z,99518.23
2017-11-12T04:30:32.515Z,99514.66
2017-11-12T04:32:58.758Z,99525.92
2017-11-12T04:35:25.034Z,99525.53
2017-11-12T04:37:51.289Z,99528.40
2017-11-12T04:40:17.520Z,99525.88
2017-11-12T04:42:43.809Z,99528.55
2017-11-12T04:45:10.045Z,99530.34
2017-11-12T04:47:36.274Z,99531.81
2017-11-12T04:50:02.585Z,99530.59
2017-11-12T04:52:28.842Z,99536.89
2017-11-12T04:54:55.082Z,99531.20
2017-11-12T04:57:21.366Z,99526.27
2017-11-12T04:59:47.606Z,99528.21
2017-11-12T05:02:13.853Z,99520.83
2017-11-12T05:04:40.142Z,99525.12
2017-11-12T05:07:06.389Z,99523.84
2017-11-12T05:09:32.641Z,99517.30
2017-11-12T05:11:58.913Z,99516.95
2017-11-12T05:14:25.162Z,99517.28
2017-11-12T05:16:51.391Z,99515.99
2017-11-12T05:19:17.681Z,99517.09
2017-11-12T05:21:43.933Z,99528.51
2017-11-12T05:24:10.174Z,99521.56
2017-11-12T05:26:36.449Z,99529.25
2017-11-12T05:29:02.709Z,99532.64
2017-11-12T05:31:28.948Z,99533.56
2017-11-12T05:33:55.251Z,99530.69
2017-11-12T05:36:21.510Z,99531.56
2017-11-12T05:38:47.767Z,99529.22
2017-11-12T05:41:14.055Z,99534.05
2017-11-12T05:43:40.312Z,99537.73
2017-11-12T05:46:06.550Z,99541.04
2017-11-12T05:48:32.843Z,99543.69
2017-11-12T05:50:59.085Z,99535.87
2017-11-12T05:53:25.320Z,99545.86
2017-11-12T05:55:51.610Z,99547.63
2017-11-12T05:58:17.849Z,99543.18
2017-11-12T06:00:44.085Z,99546.65
2017-11-12T06:03:10.372Z,99544.48
2017-11-12T06:05:36.630Z,99547.88
2017-11-12T06:08:02.880Z,99552.37
2017-11-12T06:10:29.164Z,99557.42
2017-11-12T06:12:55.401Z,99559.87
2017-11-12T06:15:21.644Z,99559.03
2017-11-12T06:17:47.916Z,99557.09
2017-11-12T06:20:14.149Z,99563.27
2017-11-12T06:22:40.404Z,99564.69
2017-11-12T06:25:06.656Z,99559.16
2017-11-12T06:27:32.893Z,99566.30
2017-11-12T06:29:59.110Z,99562.51
2017-11-12T06:32:25.390Z,99568.65
2017-11-12T06:34:51.624Z,99574.72
2017-11-12T06:37:17.864Z,99569.80
2017-11-12T06:39:44.142Z,99566.33
2017-11-12T06:42:10.486Z,99565.61
2017-11-12T06:44:36.717Z,99566.83
2017-11-12T06:47:02.989Z,99557.83
2017-11-12T06:49:29.207Z,99546.59
2017-11-12T06:51:55.450Z,99555.65
2017-11-12T06:54:21.727Z,99557.56
2017-11-12T06:56:47.955Z,99553.95
2017-11-12T06:59:14.178Z,99551.00
2017-11-12T07:01:40.442Z,99552.47
2017-11-12T07:04:06.670Z,99559.98
2017-11-12T07:06:32.902Z,99550.20
2017-11-12T07:08:59.173Z,99547.77
2017-11-12T07:11:25.412Z,99543.72
2017-11-12T07:13:51.679Z,99539.03
2017-11-12T07:16:17.936Z,99543.74
2017-11-12T07:18:44.142Z,99543.62
2017-11-12T07:21:10.361Z,99545.78
2017-11-12T07:23:36.615Z,99530.42
2017-11-12T07:26:02.844Z,99527.22
2017-11-12T07:28:29.056Z,99529.38
2017-11-12T07:30:55.326Z,99529.74
2017-11-12T07:33:21.556Z,99521.23
2017-11-12T07:35:47.785Z,99522.64
2017-11-12T07:38:14.057Z,99523.91
2017-11-12T07:40:40.291Z,99521.89
2017-11-12T07:43:06.518Z,99514.72
2017-11-12T07:45:32.775Z,99512.50
2017-11-12T07:47:58.982Z,99512.34
2017-11-12T07:50:25.195Z,99517.75
2017-11-12T07:52:51.472Z,99509.84
2017-11-12T07:55:17.695Z,99506.64
2017-11-12T07:57:43.897Z,99505.34
2017-11-12T08:00:10.163Z,99505.07
2017-11-12T08:02:36.398Z,99510.28
2017-11-12T08:05:02.632Z,99512.30
2017-11-12T08:07:28.953Z,99516.11
2017-11-12T08:09:55.197Z,99513.19
2017-11-12T08:12:21.418Z,99508.63
2017-11-12T08:14:47.712Z,99507.52
2017-11-12T08:17:13.949Z,99500.38
2017-11-12T08:19:40.204Z,99491.41
2017-11-12T08:22:06.467Z,99498.71
2017-11-12T08:24:32.683Z,99488.35
2017-11-12T08:26:58.918Z,99490.59
2017-11-12T08:29:25.209Z,99489.45
2017-11-12T08:31:51.410Z,99487.78
2017-11-12T08:34:17.632Z,99494.98
2017-11-12T08:36:43.919Z,99490.59
2017-11-12T08:39:10.149Z,99488.80
2017-11-12T08:41:36.385Z,99485.00
2017-11-12T08:44:02.679Z,99479.46
2017-11-12T08:46:28.907Z,99481.38
2017-11-12T08:48:55.149Z,99473.81
2017-11-12T08:51:21.415Z,99477.09
2017-11-12T08:53:47.636Z,99472.41
2017-11-12T08:56:13.973Z,99472.81
2017-11-12T08:58:40.249Z,99478.13
2017-11-12T09:01:06.482Z,99467.09
2017-11-12T09:03:32.723Z,99456.45
2017-11-12T09:05:58.977Z,99459.13
2017-11-12T09:08:25.320Z,99455.74
2017-11-12T09:10:51.545Z,99446.87
2017-11-12T09:13:17.821Z,99450.60
2017-11-12T09:15:44.055Z,99451.56
2017-11-12T09:18:10.271Z,99444.80
2017-11-12T09:20:36.539Z,99437.86
2017-11-12T09:23:02.765Z,99430.09
2017-11-12T09:25:29.031Z,99430.61
2017-11-12T09:27:55.300Z,99433.42
2017-11-12T09:30:21.522Z,99430.79
2017-11-12T09:32:47.758Z,99429.10
2017-11-12T09:35:14.032Z,99429.02
2017-11-12T09:37:40.255Z,99422.19
2017-11-12T09:40:06.488Z,99415.02
2017-11-12T09:42:32.767Z,99421.81
2017-11-12T09:44:58.991Z,99414.34
2017-11-12T09:47:25.272Z,99413.05
2017-11-12T09:49:51.562Z,99410.52
2017-11-12T09:52:17.787Z,99410.48
2017-11-12T09:54:44.255Z,99403.97
2017-11-12T09:57:10.526Z,99393.16
2017-11-12T09:59:37.148Z,99387.60
2017-11-12T10:02:03.601Z,99380.77
2017-11-12T10:04:30.075Z,99374.96
2017-11-12T10:06:56.307Z,99373.20
2017-11-12T10:09:22.525Z,99370.30
2017-11-12T10:11:48.783Z,99358.84
2017-11-12T10:14:15.003Z,99361.91
2017-11-12T10:16:41.363Z,99353.29
2017-11-12T10:19:07.637Z,99352.09
2017-11-12T10:21:33.856Z,99349.34
2017-11-12T10:24:00.315Z,99342.20
2017-11-12T10:26:26.758Z,99335.64
2017-11-12T10:28:53.199Z,99332.41
2017-11-12T10:31:19.409Z,99330.05
2017-11-12T10:33:45.813Z,99322.48
2017-11-12T10:36:12.240Z,99314.17
2017-11-12T10:38:38.842Z,99318.92
2017-11-12T10:41:05.543Z,99309.05
2017-11-12T10:43:32.151Z,99305.98
2017-11-12T10:45:58.785Z,99307.63
2017-11-12T10:48:25.287Z,99304.00
2017-11-12T10:50:51.645Z,99309.44
2017-11-12T10:53:18.189Z,99303.48
2017-11-12T10:55:44.615Z,99305.36
2017-11-12T10:58:11.155Z,99302.27
2017-11-12T11:00:37.589Z,99298.47
2017-11-12T11:03:04.114Z,99303.67
2017-11-12T11:05:30.534Z,99308.44
2017-11-12T11:07:56.977Z,99303.27
2017-11-12T11:10:23.631Z,99299.95
2017-11-12T11:12:50.268Z,99297.30
2017-11-12T11:15:16.777Z,99297.70
2017-11-12T11:17:43.196Z,99282.86
2017-11-12T11:20:09.607Z,99273.81
2017-11-12T11:22:35.888Z,99286.64
2017-11-12T11:25:02.440Z,99277.98
2017-11-12T11:27:29.039Z,99281.25
2017-11-12T11:29:55.486Z,99279.86
2017-11-12T11:32:22.148Z,99271.94
2017-11-12T11:34:48.643Z,99277.26
2017-11-12T11:37:15.082Z,99275.94
2017-11-12T11:39:41.749Z,99267.91
2017-11-12T11:42:08.190Z,99270.51
2017-11-12T11:44:34.403Z,99276.00
2017-11-12T11:47:00.904Z,99266.09
2017-11-12T11:49:27.275Z,99265.70
2017-11-12T11:51:53.560Z,99260.05
2017-11-12T11:54:19.946Z,99259.95
2017-11-12T11:56:46.583Z,99254.98
2017-11-12T11:59:13.015Z,99258.05
2017-11-12T12:01:39.493Z,99261.70
2017-11-12T12:04:05.947Z,99256.34
2017-11-12T12:06:32.372Z,99256.19
2017-11-12T12:08:58.832Z,99253.23
2017-11-12T12:11:25.250Z,99250.41
2017-11-12T12:13:51.766Z,99252.23
2017-11-12T12:16:18.458Z,99254.92
2017-11-12T12:18:44.892Z,99248.30
2017-11-12T12:21:11.532Z,99244.28
2017-11-12T12:23:38.160Z,99245.00
2017-11-12T12:26:05.012Z,99250.50
2017-11-12T12:28:31.433Z,99243.00
2017-11-12T12:30:57.933Z,99253.53
2017-11-12T12:33:24.390Z,99255.81
2017-11-12T12:35:50.796Z,99258.25
2017-11-12T12:38:17.336Z,99253.94
2017-11-12T12:40:43.614Z,99258.08
2017-11-12T12:43:10.224Z,99260.83
2017-11-12T12:45:36.742Z,99261.79
2017-11-12T12:48:03.187Z,99258.97
2017-11-12T12:50:29.701Z,99259.52
2017-11-12T12:52:56.395Z,99265.73
2017-11-12T12:55:22.831Z,99267.58
2017-11-12T12:57:49.308Z,99258.63
2017-11-12T13:00:15.845Z,99248.82
2017-11-12T13:02:42.289Z,99256.16
2017-11-12T13:05:08.730Z,99250.28
2017-11-12T13:07:35.370Z,99260.56
2017-11-12T13:10:01.626Z,99255.24
2017-11-12T13:12:28.066Z,99259.21
2017-11-12T13:14:54.546Z,99259.46
2017-11-12T13:17:20.991Z,99261.11
2017-11-12T13:19:47.432Z,99266.88
2017-11-12T13:22:13.954Z,99265.27
2017-11-12T13:24:40.416Z,99266.88
2017-11-12T13:27:06.873Z,99270.39
2017-11-12T13:29:33.350Z,99274.19
2017-11-12T13:31:59.793Z,99276.81
2017-11-12T13:34:26.378Z,99274.70
2017-11-12T13:36:52.981Z,99273.55
2017-11-12T13:39:19.420Z,99275.41
2017-11-12T13:41:45.705Z,99280.80
2017-11-12T13:44:12.111Z,99272.59
2017-11-12T13:46:38.598Z,99285.59
2017-11-12T13:49:05.041Z,99284.33
2017-11-12T13:51:31.409Z,99289.23
2017-11-12T13:53:58.023Z,99291.61
2017-11-12T13:56:24.482Z,99289.19
2017-11-12T13:58:51.123Z,99293.41
2017-11-12T14:01:17.550Z,99293.72
2017-11-12T14:03:44.165Z,99290.49
2017-11-12T14:06:10.828Z,99291.50
2017-11-12T14:08:37.326Z,99297.48
2017-11-12T14:11:03.845Z,99290.00
2017-11-12T14:13:30.127Z,99292.41
2017-11-12T14:15:56.753Z,99285.95
2017-11-12T14:18:23.406Z,99291.53
2017-11-12T14:20:50.011Z,99290.16
2017-11-12T14:23:16.429Z,99287.01
2017-11-12T14:25:42.704Z,99288.77
2017-11-12T14:28:08.980Z,99282.95
2017-11-12T14:30:35.213Z,99288.00
2017-11-12T14:33:01.772Z,99287.25
2017-11-12T14:35:28.440Z,99290.58
2017-11-12T14:37:55.057Z,99285.74
2017-11-12T14:40:21.496Z,99294.61
2017-11-12T14:42:48.148Z,99295.70
2017-11-12T14:45:14.784Z,99293.56
2017-11-12T14:47:41.402Z,99298.59
2017-11-12T14:50:08.112Z,99299.87
2017-11-12T14:52:34.331Z,99296.75
2017-11-12T14:55:00.901Z,99301.92
2017-11-12T14:57:27.417Z,99302.86
2017-11-12T14:59:53.797Z,99297.96
2017-11-12T15:02:20.121Z,99297.94
2017-11-12T15:04:46.378Z,99307.52
2017-11-12T15:07:12.892Z,99305.43
2017-11-12T15:09:39.504Z,99305.39
2017-11-12T15:12:05.920Z,99304.94
2017-11-12T15:14:32.172Z,99299.98
2017-11-12T15:16:58.391Z,99307.92
2017-11-12T15:19:24.668Z,99310.69
2017-11-12T15:21:50.936Z,99303.95
2017-11-12T15:24:17.379Z,99310.67
2017-11-12T15:26:43.798Z,99323.26
2017-11-12T15:29:10.240Z,99322.20
2017-11-12T15:31:36.684Z,99321.58
2017-11-12T15:34:03.099Z,99318.29
2017-11-12T15:36:29.377Z,99314.05
2017-11-12T15:38:55.983Z,99315.88
2017-11-12T15:41:22.421Z,99319.42
2017-11-12T15:43:48.703Z,99310.16
2017-11-12T15:46:14.946Z,99314.89
2017-11-12T15:48:41.187Z,99312.67
2017-11-12T15:51:07.469Z,99317.63
2017-11-12T15:53:33.960Z,99312.69
2017-11-12T15:56:00.403Z,99319.47
2017-11-12T15:58:27.070Z,99323.17
2017-11-12T16:00:53.687Z,99305.92
2017-11-12T16:03:20.327Z,99319.34
2017-11-12T16:05:46.586Z,99326.81
2017-11-12T16:08:13.187Z,99326.30
2017-11-12T16:10:39.446Z,99323.86
2017-11-12T16:13:06.079Z,99329.05
2017-11-12T16:15:32.308Z,99336.45
2017-11-12T16:17:58.929Z,99329.94
2017-11-12T16:20:25.583Z,99328.35
2017-11-12T16:22:51.807Z,99328.64
2017-11-12T16:25:18.055Z,99334.27
2017-11-12T16:27:44.329Z,99331.52
2017-11-12T16:30:10.542Z,99326.97
2017-11-12T16:32:36.772Z,99326.52
2017-11-12T16:35:03.043Z,99330.07
2017-11-12T16:37:29.270Z,99325.17
2017-11-12T16:39:55.504Z,99334.60
2017-11-12T16:42:21.759Z,99339.98
2017-11-12T16:44:48.140Z,99342.23
2017-11-12T16:47:14.381Z,99340.05
2017-11-12T16:49:40.747Z,99346.80
2017-11-12T16:52:07.342Z,99342.85
2017-11-12T16:54:33.563Z,99346.16
2017-11-12T16:56:59.824Z,99347.45
2017-11-12T16:59:26.093Z,99333.71
2017-11-12T17:01:52.313Z,99337.54
2017-11-12T17:04:18.580Z,99341.77
2017-11-12T17:06:44.793Z,99343.77
2017-11-12T17:09:11.036Z,99341.41
2017-11-12T17:11:37.265Z,99339.16
2017-11-12T17:14:03.473Z,99340.50
2017-11-12T17:16:29.747Z,99344.05
2017-11-12T17:18:55.992Z,99348.94
2017-11-12T17:21:22.526Z,99346.77
2017-11-12T17:23:49.011Z,99334.86
2017-11-12T17:26:15.378Z,99340.17
2017-11-12T17:28:41.773Z,99331.34
2017-11-12T17:31:08.048Z,99335.53
2017-11-12T17:33:34.270Z,99328.25
2017-11-12T17:36:00.675Z,99319.88
2017-11-12T17:38:27.138Z,99307.27
2017-11-12T17:40:53.776Z,99309.38
2017-11-12T17:43:20.427Z,99315.32
2017-11-12T17:45:47.238Z,99317.18
2017-11-12T17:48:13.678Z,99317.72
2017-11-12T17:50:40.129Z,99329.08
2017-11-12T17:53:06.641Z,99326.11
2017-11-12T17:55:33.156Z,99321.20
2017-11-12T17:57:59.600Z,99320.22
2017-11-12T18:00:26.274Z,99318.30
2017-11-12T18:02:52.876Z,99317.08
2017-11-12T18:05:19.157Z,99320.67
2017-11-12T18:07:45.783Z,99322.97
2017-11-12T18:10:11.996Z,99316.30
2017-11-12T18:12:38.210Z,99314.27
2017-11-12T18:15:04.467Z,99300.55
2017-11-12T18:17:30.683Z,99294.17
2017-11-12T18:19:56.913Z,99292.78
2017-11-12T18:22:23.164Z,99289.73
2017-11-12T18:24:49.373Z,99296.57
2017-11-12T18:27:15.611Z,99294.13
2017-11-12T18:29:42.092Z,99293.40
2017-11-12T18:32:08.479Z,99294.76
2017-11-12T18:34:34.708Z,99291.14
2017-11-12T18:37:00.988Z,99290.28
2017-11-12T18:39:27.203Z,99285.96
2017-11-12T18:41:53.651Z,99286.85
2017-11-12T18:44:19.931Z,99283.21
2017-11-12T18:46:46.160Z,99273.24
2017-11-12T18:49:12.381Z,99270.92
2017-11-12T18:51:38.717Z,99261.00
2017-11-12T18:54:05.356Z,99260.64
2017-11-12T18:56:31.978Z,99240.95
2017-11-12T18:58:58.633Z,99269.58
2017-11-12T19:01:25.139Z,99273.37
2017-11-12T19:03:51.554Z,99256.33
2017-11-12T19:06:17.927Z,99255.56
2017-11-12T19:08:44.132Z,99259.02
2017-11-12T19:11:10.390Z,99256.33
2017-11-12T19:13:37.026Z,99269.70
2017-11-12T19:16:03.638Z,99261.81
2017-11-12T19:18:29.896Z,99240.71
2017-11-12T19:20:56.316Z,99251.97
2017-11-12T19:23:22.556Z,99252.78
2017-11-12T19:25:48.991Z,99252.55
2017-11-12T19:28:15.423Z,99254.13
2017-11-12T19:30:41.911Z,99254.70
2017-11-12T19:33:08.288Z,99247.10
2017-11-12T19:35:34.536Z,99241.20
2017-11-12T19:38:00.780Z,99242.67
2017-11-12T19:40:27.235Z,99245.23
2017-11-12T19:42:53.509Z,99249.20
2017-11-12T19:45:19.747Z,99243.02
2017-11-12T19:47:46.040Z,99237.23
2017-11-12T19:50:12.300Z,99237.63
2017-11-12T19:52:38.533Z,99233.38
2017-11-12T19:55:04.815Z,99233.52
2017-11-12T19:57:31.148Z,99229.66
2017-11-12T19:59:57.602Z,99234.20
2017-11-12T20:02:23.851Z,99233.42
2017-11-12T20:04:50.288Z,99228.15
2017-11-12T20:07:16.793Z,99225.73
2017-11-12T20:09:43.051Z,99229.13
2017-11-12T20:12:09.365Z,99230.20
2017-11-12T20:14:35.606Z,99230.24
2017-11-12T20:17:01.878Z,99229.16
2017-11-12T20:19:28.141Z,99238.58
2017-11-12T20:21:54.366Z,99237.61
2017-11-12T20:24:20.635Z,99226.19
2017-11-12T20:26:46.865Z,99227.27
2017-11-12T20:29:13.085Z,99225.50
2017-11-12T20:31:39.302Z,99218.34
2017-11-12T20:34:05.632Z,99210.78
2017-11-12T20:36:31.872Z,99202.58
2017-11-12T20:38:58.259Z,99203.89
2017-11-12T20:41:24.705Z,99198.50
2017-11-12T20:43:50.935Z,99192.98
2017-11-12T20:46:17.196Z,99195.02
2017-11-12T20:48:43.445Z,99188.22
2017-11-12T20:51:09.680Z,99188.75
2017-11-12T20:53:35.948Z,99182.73
2017-11-12T20:56:02.181Z,99185.20
2017-11-12T20:58:28.412Z,99186.86
2017-11-12T21:00:54.686Z,99188.08
2017-11-12T21:03:20.930Z,99190.84
2017-11-12T21:05:47.157Z,99191.81
2017-11-12T21:08:13.421Z,99189.42
2017-11-12T21:10:39.651Z,99182.55
2017-11-12T21:13:05.900Z,99182.80
2017-11-12T21:15:32.178Z,99176.84
2017-11-12T21:17:58.392Z,99165.58
2017-11-12T21:20:24.808Z,99161.52
2017-11-12T21:22:51.080Z,99166.64
2017-11-12T21:25:17.291Z,99167.67
2017-11-12T21:27:43.507Z,99170.44
2017-11-12T21:30:09.764Z,99160.45
2017-11-12T21:32:35.984Z,99157.20
2017-11-12T21:35:02.194Z,99155.23
2017-11-12T21:37:28.448Z,99148.08
2017-11-12T21:39:54.782Z,99148.75
2017-11-12T21:42:20.997Z,99140.36
2017-11-12T21:44:47.274Z,99145.19
2017-11-12T21:47:13.495Z,99136.19
2017-11-12T21:49:39.718Z,99126.05
2017-11-12T21:52:06.005Z,99121.25
2017-11-12T21:54:32.383Z,99120.25
2017-11-12T21:56:58.608Z,99121.55
2017-11-12T21:59:24.886Z,99116.03
2017-11-12T22:01:52.132Z,99124.84
2017-11-12T22:04:18.344Z,99116.21
2017-11-12T22:06:44.583Z,99114.64
2017-11-12T22:09:10.797Z,99120.40
2017-11-12T22:11:37.016Z,99107.92
2017-11-12T22:14:03.280Z,99113.55
2017-11-12T22:16:29.510Z,99111.49
2017-11-12T22:18:55.732Z,99115.55
2017-11-12T22:21:22.003Z,99113.17
2017-11-12T22:23:48.229Z,99123.26
2017-11-12T22:26:14.461Z,99125.86
2017-11-12T22:28:40.731Z,99121.56
2017-11-12T22:31:06.979Z,99123.75
2017-11-12T22:33:33.189Z,99122.00
2017-11-12T22:35:59.435Z,99112.66
2017-11-12T22:38:25.643Z,99112.25
2017-11-12T22:40:51.858Z,99109.31
2017-11-12T22:43:18.119Z,99103.63
2017-11-12T22:45:44.348Z,99099.44
2017-11-12T22:48:10.676Z,99096.19
2017-11-12T22:50:37.097Z,99099.97
2017-11-12T22:53:03.315Z,99085.64
2017-11-12T22:55:29.565Z,99085.49
2017-11-12T22:57:55.831Z,99085.23
2017-11-12T23:00:22.066Z,99078.47
2017-11-12T23:02:48.305Z,99073.56
2017-11-12T23:05:14.556Z,99068.84
2017-11-12T23:07:40.789Z,99063.98
2017-11-12T23:10:07.027Z,99064.77
2017-11-12T23:12:33.286Z,99067.34
2017-11-12T23:14:59.512Z,99069.66
2017-11-12T23:17:25.746Z,99054.23
2017-11-12T23:19:52.060Z,99063.16
2017-11-12T23:22:18.275Z,99059.88
2017-11-12T23:24:44.491Z,99059.09
2017-11-12T23:27:10.756Z,99060.02
2017-11-12T23:29:37.009Z,99057.30
2017-11-12T23:32:03.405Z,99051.89
2017-11-12T23:34:29.680Z,99057.44
2017-11-12T23:36:55.920Z,99068.42
2017-11-12T23:39:22.295Z,99060.41
2017-11-12T23:41:48.573Z,99062.84
2017-11-12T23:44:14.803Z,99054.06
2017-11-12T23:46:41.013Z,99049.19
2017-11-12T23:49:07.253Z,99059.86
2017-11-12T23:51:33.489Z,99064.69
2017-11-12T23:53:59.717Z,99061.34
2017-11-12T23:56:26.101Z,99066.05
2017-11-12T23:58:52.515Z,99056.30
